createdAt,value
2016-09-30T00:00:36.943Z,201
2016-09-30T00:01:37.453Z,201
2016-09-30T00:02:38.113Z,201
2016-09-30T00:03:38.499Z,201
2016-09-30T00:04:39.018Z,201
2016-09-30T00:05:39.506Z,145
2016-09-30T00:06:40.041Z,145
2016-09-30T00:07:40.528Z,145
2016-09-30T00:08:41.045Z,145
2016-09-30T00:09:41.588Z,145
2016-09-30T00:10:42.077Z,145
2016-09-30T00:11:42.585Z,145
2016-09-30T00:12:43.103Z,145
2016-09-30T00:13:45.117Z,145
2016-09-30T00:14:44.136Z,145
2016-09-30T00:15:44.637Z,173
2016-09-30T00:16:45.147Z,173
2016-09-30T00:17:45.665Z,173
2016-09-30T00:18:46.167Z,173
2016-09-30T00:19:46.682Z,173
2016-09-30T00:20:47.193Z,173
2016-09-30T00:21:47.704Z,173
2016-09-30T00:22:48.213Z,173
2016-09-30T00:23:48.729Z,173
2016-09-30T00:24:49.242Z,173
2016-09-30T00:25:49.758Z,163
2016-09-30T00:26:50.269Z,163
2016-09-30T00:27:50.787Z,163
2016-09-30T00:28:51.298Z,163
2016-09-30T00:29:51.807Z,163
2016-09-30T00:30:52.473Z,163
2016-09-30T00:31:52.833Z,163
2016-09-30T00:32:53.342Z,163
2016-09-30T00:33:53.861Z,163
2016-09-30T00:34:54.368Z,163
2016-09-30T00:35:54.885Z,147
2016-09-30T00:36:55.391Z,147
2016-09-30T00:37:55.922Z,147
2016-09-30T00:38:56.408Z,147
2016-09-30T00:39:57.068Z,147
2016-09-30T00:40:57.431Z,147
2016-09-30T00:41:58.092Z,147
2016-09-30T00:42:58.469Z,147
2016-09-30T00:43:58.972Z,147
2016-09-30T00:44:59.481Z,161
2016-09-30T00:46:00.001Z,161
2016-09-30T00:47:00.516Z,161
2016-09-30T00:48:01.032Z,161
2016-09-30T00:49:01.547Z,161
2016-09-30T00:50:02.059Z,161
2016-09-30T00:51:02.717Z,161
2016-09-30T00:52:03.080Z,161
2016-09-30T00:53:03.595Z,161
2016-09-30T00:54:04.103Z,161
2016-09-30T00:55:04.761Z,189
2016-09-30T00:56:05.133Z,189
2016-09-30T00:57:05.636Z,189
2016-09-30T00:58:06.145Z,189
2016-09-30T00:59:06.668Z,189
2016-09-30T01:00:07.172Z,189
2016-09-30T01:01:07.679Z,189
2016-09-30T01:02:08.189Z,189
2016-09-30T01:03:08.704Z,189
2016-09-30T01:04:09.212Z,189
2016-09-30T01:05:09.726Z,177
2016-09-30T01:06:10.232Z,177
2016-09-30T01:07:10.755Z,177
2016-09-30T01:08:11.283Z,177
2016-09-30T01:09:11.770Z,177
2016-09-30T01:10:12.434Z,177
2016-09-30T01:11:12.795Z,177
2016-09-30T01:12:13.304Z,177
2016-09-30T01:13:13.816Z,177
2016-09-30T01:14:14.327Z,177
2016-09-30T01:15:14.843Z,169
2016-09-30T01:16:15.349Z,169
2016-09-30T01:17:16.014Z,169
2016-09-30T01:18:16.525Z,169
2016-09-30T01:19:17.040Z,169
2016-09-30T01:20:17.405Z,169
2016-09-30T01:21:17.908Z,169
2016-09-30T01:22:18.423Z,169
2016-09-30T01:23:19.105Z,169
2016-09-30T01:24:19.459Z,169
2016-09-30T01:25:19.973Z,145
2016-09-30T01:26:20.487Z,145
2016-09-30T01:27:21.002Z,145
2016-09-30T01:28:21.671Z,145
2016-09-30T01:29:22.031Z,145
2016-09-30T01:30:22.540Z,145
2016-09-30T01:31:24.101Z,145
2016-09-30T01:32:23.563Z,145
2016-09-30T01:33:24.075Z,145
2016-09-30T01:34:24.746Z,145
2016-09-30T01:35:25.096Z,131
2016-09-30T01:36:25.605Z,131
2016-09-30T01:37:26.123Z,131
2016-09-30T01:38:26.634Z,131
2016-09-30T01:39:27.147Z,131
2016-09-30T01:40:27.658Z,131
2016-09-30T01:41:28.172Z,131
2016-09-30T01:42:28.690Z,131
2016-09-30T01:43:29.195Z,131
2016-09-30T01:44:29.715Z,131
2016-09-30T01:45:30.372Z,127
2016-09-30T01:46:30.882Z,127
2016-09-30T01:47:31.241Z,127
2016-09-30T01:48:31.755Z,127
2016-09-30T01:49:33.164Z,127
2016-09-30T01:50:32.772Z,127
2016-09-30T01:51:33.288Z,127
2016-09-30T01:52:33.821Z,127
2016-09-30T01:53:34.469Z,127
2016-09-30T01:54:34.834Z,127
2016-09-30T01:55:35.346Z,123
2016-09-30T01:56:35.860Z,123
2016-09-30T01:57:36.366Z,123
2016-09-30T01:58:36.881Z,123
2016-09-30T01:59:37.387Z,123
2016-09-30T02:00:37.903Z,123
2016-09-30T02:01:38.572Z,123
2016-09-30T02:02:38.937Z,123
2016-09-30T02:03:39.453Z,123
2016-09-30T02:04:40.112Z,123
2016-09-30T02:05:40.621Z,124
2016-09-30T02:06:40.977Z,124
2016-09-30T02:07:41.499Z,124
2016-09-30T02:08:42.002Z,124
2016-09-30T02:09:42.520Z,124
2016-09-30T02:10:43.178Z,124
2016-09-30T02:11:43.549Z,124
2016-09-30T02:12:44.059Z,124
2016-09-30T02:13:44.583Z,124
2016-09-30T02:14:45.234Z,124
2016-09-30T02:15:45.590Z,111
2016-09-30T02:16:46.104Z,111
2016-09-30T02:17:46.610Z,111
2016-09-30T02:18:47.122Z,111
2016-09-30T02:19:48.385Z,111
2016-09-30T02:20:48.297Z,111
2016-09-30T02:21:48.660Z,111
2016-09-30T02:22:49.183Z,111
2016-09-30T02:23:49.690Z,111
2016-09-30T02:24:50.195Z,111
2016-09-30T02:25:50.703Z,121
2016-09-30T02:26:51.216Z,121
2016-09-30T02:27:51.725Z,121
2016-09-30T02:28:52.240Z,121
2016-09-30T02:29:52.920Z,121
2016-09-30T02:30:53.260Z,121
2016-09-30T02:31:53.919Z,121
2016-09-30T02:32:54.288Z,121
2016-09-30T02:33:54.794Z,121
2016-09-30T02:34:55.310Z,121
2016-09-30T02:35:55.840Z,120
2016-09-30T02:36:56.346Z,120
2016-09-30T02:37:56.855Z,120
2016-09-30T02:38:57.368Z,120
2016-09-30T02:39:57.888Z,120
2016-09-30T02:40:58.399Z,120
2016-09-30T02:41:58.907Z,120
2016-09-30T02:42:59.420Z,120
2016-09-30T02:43:59.933Z,120
2016-09-30T02:45:00.445Z,128
2016-09-30T02:46:00.951Z,128
2016-09-30T02:47:01.469Z,128
2016-09-30T02:48:02.126Z,128
2016-09-30T02:49:02.496Z,128
2016-09-30T02:50:06.005Z,128
2016-09-30T02:51:03.517Z,128
2016-09-30T02:52:04.064Z,128
2016-09-30T02:53:04.545Z,128
2016-09-30T02:54:05.051Z,128
2016-09-30T02:55:05.714Z,114
2016-09-30T02:56:06.078Z,114
2016-09-30T02:57:06.587Z,114
2016-09-30T02:58:07.100Z,114
2016-09-30T02:59:07.610Z,114
2016-09-30T03:00:08.277Z,114
2016-09-30T03:01:08.634Z,114
2016-09-30T03:02:09.143Z,114
2016-09-30T03:03:09.806Z,114
2016-09-30T03:04:10.165Z,114
2016-09-30T03:05:10.824Z,126
2016-09-30T03:06:11.196Z,126
2016-09-30T03:07:12.625Z,126
2016-09-30T03:08:12.531Z,126
2016-09-30T03:09:12.867Z,126
2016-09-30T03:10:13.255Z,126
2016-09-30T03:11:13.754Z,126
2016-09-30T03:12:14.418Z,126
2016-09-30T03:13:14.788Z,126
2016-09-30T03:14:15.302Z,126
2016-09-30T03:15:15.824Z,146
2016-09-30T03:16:16.320Z,146
2016-09-30T03:17:17.284Z,146
2016-09-30T03:18:17.519Z,146
2016-09-30T03:19:18.037Z,146
2016-09-30T03:20:18.681Z,146
2016-09-30T03:21:18.887Z,146
2016-09-30T03:22:19.400Z,146
2016-09-30T03:23:19.913Z,146
2016-09-30T03:24:20.419Z,146
2016-09-30T03:25:22.432Z,128
2016-09-30T03:26:21.590Z,128
2016-09-30T03:27:22.101Z,128
2016-09-30T03:28:22.469Z,128
2016-09-30T03:29:22.983Z,128
2016-09-30T03:30:23.488Z,128
2016-09-30T03:31:24.002Z,128
2016-09-30T03:32:24.516Z,128
2016-09-30T03:33:25.024Z,128
2016-09-30T03:34:25.690Z,128
2016-09-30T03:35:26.047Z,174
2016-09-30T03:36:26.716Z,174
2016-09-30T03:37:27.072Z,174
2016-09-30T03:38:27.586Z,174
2016-09-30T03:39:28.101Z,174
2016-09-30T03:40:28.610Z,174
2016-09-30T03:41:29.131Z,174
2016-09-30T03:42:29.638Z,174
2016-09-30T03:43:30.149Z,174
2016-09-30T03:44:30.806Z,174
2016-09-30T03:45:31.166Z,176
2016-09-30T03:46:31.686Z,176
2016-09-30T03:47:32.189Z,176
2016-09-30T03:48:32.699Z,176
2016-09-30T03:49:33.214Z,176
2016-09-30T03:50:33.735Z,176
2016-09-30T03:51:34.239Z,176
2016-09-30T03:52:34.750Z,176
2016-09-30T03:53:35.265Z,176
2016-09-30T03:54:35.783Z,176
2016-09-30T03:55:37.642Z,143
2016-09-30T03:56:36.818Z,143
2016-09-30T03:57:37.319Z,143
2016-09-30T03:58:37.982Z,143
2016-09-30T03:59:38.352Z,143
2016-09-30T04:00:39.004Z,143
2016-09-30T04:01:39.372Z,143
2016-09-30T04:02:39.876Z,143
2016-09-30T04:03:40.388Z,143
2016-09-30T04:04:41.048Z,143
2016-09-30T04:05:41.405Z,124
2016-09-30T04:06:41.910Z,124
2016-09-30T04:07:42.423Z,124
2016-09-30T04:08:42.934Z,124
2016-09-30T04:09:43.597Z,124
2016-09-30T04:10:43.960Z,124
2016-09-30T04:11:44.472Z,124
2016-09-30T04:12:45.278Z,124
2016-09-30T04:13:45.658Z,124
2016-09-30T04:14:46.010Z,124
2016-09-30T04:15:46.531Z,158
2016-09-30T04:16:47.042Z,158
2016-09-30T04:17:47.548Z,158
2016-09-30T04:18:48.062Z,158
2016-09-30T04:19:48.572Z,158
2016-09-30T04:20:49.231Z,158
2016-09-30T04:21:49.596Z,158
2016-09-30T04:22:50.098Z,158
2016-09-30T04:23:50.615Z,158
2016-09-30T04:24:51.126Z,158
2016-09-30T04:25:51.636Z,94
2016-09-30T04:26:52.145Z,94
2016-09-30T04:27:52.658Z,94
2016-09-30T04:28:53.325Z,94
2016-09-30T04:29:53.686Z,94
2016-09-30T04:30:54.203Z,94
2016-09-30T04:31:54.726Z,94
2016-09-30T04:32:55.226Z,94
2016-09-30T04:33:55.737Z,94
2016-09-30T04:34:56.246Z,94
2016-09-30T04:35:56.754Z,107
2016-09-30T04:36:57.263Z,107
2016-09-30T04:37:57.929Z,107
2016-09-30T04:38:58.294Z,107
2016-09-30T04:39:58.803Z,107
2016-09-30T04:40:59.316Z,107
2016-09-30T04:41:59.835Z,107
2016-09-30T04:43:00.349Z,107
2016-09-30T04:44:00.857Z,107
2016-09-30T04:45:01.366Z,108
2016-09-30T04:46:01.877Z,108
2016-09-30T04:47:02.394Z,108
2016-09-30T04:48:02.898Z,108
2016-09-30T04:49:03.562Z,108
2016-09-30T04:50:04.065Z,108
2016-09-30T04:51:04.453Z,108
2016-09-30T04:52:04.939Z,108
2016-09-30T04:53:05.452Z,108
2016-09-30T04:54:05.963Z,108
2016-09-30T04:55:06.480Z,118
2016-09-30T04:56:06.994Z,118
2016-09-30T04:57:07.651Z,118
2016-09-30T04:58:08.158Z,118
2016-09-30T04:59:08.523Z,118
2016-09-30T05:00:09.039Z,118
2016-09-30T05:01:09.549Z,118
2016-09-30T05:02:11.262Z,118
2016-09-30T05:03:10.723Z,118
2016-09-30T05:04:11.087Z,118
2016-09-30T05:05:11.597Z,127
2016-09-30T05:06:12.123Z,127
2016-09-30T05:07:12.944Z,127
2016-09-30T05:08:13.149Z,127
2016-09-30T05:09:13.684Z,127
2016-09-30T05:10:14.182Z,127
2016-09-30T05:11:14.840Z,127
2016-09-30T05:12:15.208Z,127
2016-09-30T05:13:15.719Z,127
2016-09-30T05:14:16.227Z,127
2016-09-30T05:15:16.895Z,165
2016-09-30T05:16:17.406Z,165
2016-09-30T05:17:17.786Z,165
2016-09-30T05:18:18.283Z,165
2016-09-30T05:19:18.797Z,165
2016-09-30T05:20:19.604Z,165
2016-09-30T05:21:19.816Z,165
2016-09-30T05:22:20.327Z,165
2016-09-30T05:23:20.843Z,165
2016-09-30T05:24:21.358Z,165
2016-09-30T05:25:23.666Z,162
2016-09-30T05:26:22.375Z,162
2016-09-30T05:27:22.887Z,162
2016-09-30T05:28:23.400Z,162
2016-09-30T05:29:23.913Z,162
2016-09-30T05:30:24.600Z,162
2016-09-30T05:31:24.939Z,162
2016-09-30T05:32:25.450Z,162
2016-09-30T05:33:26.107Z,162
2016-09-30T05:34:26.627Z,162
2016-09-30T05:35:27.137Z,172
2016-09-30T05:36:28.398Z,172
2016-09-30T05:37:28.013Z,172
2016-09-30T05:38:28.524Z,172
2016-09-30T05:39:29.029Z,172
2016-09-30T05:40:29.540Z,172
2016-09-30T05:41:31.553Z,172
2016-09-30T05:42:30.568Z,172
2016-09-30T05:43:31.221Z,172
2016-09-30T05:44:31.594Z,172
2016-09-30T05:45:32.257Z,207
2016-09-30T05:46:32.624Z,207
2016-09-30T05:47:33.136Z,207
2016-09-30T05:48:33.647Z,207
2016-09-30T05:49:34.160Z,207
2016-09-30T05:50:34.671Z,207
2016-09-30T05:51:35.183Z,207
2016-09-30T05:52:35.862Z,207
2016-09-30T05:53:36.213Z,207
2016-09-30T05:54:36.716Z,207
2016-09-30T05:55:37.224Z,205
2016-09-30T05:56:37.732Z,205
2016-09-30T05:57:38.249Z,205
2016-09-30T05:58:38.752Z,205
2016-09-30T05:59:39.265Z,205
2016-09-30T06:00:39.785Z,205
2016-09-30T06:01:40.442Z,205
2016-09-30T06:02:40.806Z,205
2016-09-30T06:03:41.318Z,205
2016-09-30T06:04:41.830Z,205
2016-09-30T06:05:42.339Z,208
2016-09-30T06:06:42.853Z,208
2016-09-30T06:07:43.368Z,208
2016-09-30T06:08:44.020Z,208
2016-09-30T06:09:44.536Z,208
2016-09-30T06:10:44.899Z,208
2016-09-30T06:11:45.554Z,208
2016-09-30T06:12:45.914Z,208
2016-09-30T06:13:46.429Z,208
2016-09-30T06:14:46.941Z,208
2016-09-30T06:15:47.446Z,185
2016-09-30T06:16:47.962Z,185
2016-09-30T06:17:48.632Z,185
2016-09-30T06:18:49.001Z,185
2016-09-30T06:19:49.521Z,185
2016-09-30T06:20:50.047Z,185
2016-09-30T06:21:50.569Z,185
2016-09-30T06:22:51.097Z,185
2016-09-30T06:23:51.618Z,185
2016-09-30T06:24:52.145Z,185
2016-09-30T06:25:52.670Z,201
2016-09-30T06:26:53.186Z,201
2016-09-30T06:27:53.858Z,201
2016-09-30T06:28:54.230Z,201
2016-09-30T06:29:54.741Z,201
2016-09-30T06:30:55.265Z,201
2016-09-30T06:31:55.763Z,201
2016-09-30T06:32:56.287Z,201
2016-09-30T06:33:56.791Z,201
2016-09-30T06:34:57.299Z,201
2016-09-30T06:35:57.961Z,199
2016-09-30T06:36:58.316Z,199
2016-09-30T06:37:58.839Z,199
2016-09-30T06:38:59.347Z,199
2016-09-30T06:39:59.853Z,199
2016-09-30T06:41:00.369Z,199
2016-09-30T06:42:00.884Z,199
2016-09-30T06:43:01.396Z,199
2016-09-30T06:44:01.907Z,199
2016-09-30T06:45:02.568Z,140
2016-09-30T06:46:02.922Z,140
2016-09-30T06:47:03.596Z,140
2016-09-30T06:48:03.948Z,140
2016-09-30T06:49:04.465Z,140
2016-09-30T06:50:04.981Z,140
2016-09-30T06:51:05.636Z,140
2016-09-30T06:52:06.145Z,140
2016-09-30T06:53:06.513Z,140
2016-09-30T06:54:07.025Z,140
2016-09-30T06:55:07.542Z,158
2016-09-30T06:56:08.059Z,158
2016-09-30T06:57:08.577Z,158
2016-09-30T06:58:09.095Z,158
2016-09-30T06:59:09.608Z,158
2016-09-30T07:00:10.277Z,158
2016-09-30T07:01:10.642Z,158
2016-09-30T07:02:11.151Z,158
2016-09-30T07:03:11.654Z,158
2016-09-30T07:04:12.172Z,158
2016-09-30T07:05:12.828Z,176
2016-09-30T07:07:04.995Z,176
2016-09-30T07:08:14.360Z,176
2016-09-30T07:09:14.873Z,176
2016-09-30T07:10:15.236Z,176
2016-09-30T07:11:15.893Z,176
2016-09-30T07:12:16.254Z,176
2016-09-30T07:13:16.767Z,176
2016-09-30T07:14:17.431Z,176
2016-09-30T07:15:17.794Z,176
2016-09-30T07:16:18.302Z,176
2016-09-30T07:17:18.961Z,176
2016-09-30T07:18:19.477Z,176
2016-09-30T07:19:19.832Z,176
2016-09-30T07:20:20.356Z,176
2016-09-30T07:21:20.856Z,176
2016-09-30T07:22:21.370Z,176
2016-09-30T07:23:22.032Z,176
2016-09-30T07:24:22.394Z,176
2016-09-30T07:25:22.910Z,165
2016-09-30T07:26:23.419Z,165
2016-09-30T07:27:24.079Z,165
2016-09-30T07:28:24.441Z,165
2016-09-30T07:29:25.099Z,165
2016-09-30T07:30:25.466Z,165
2016-09-30T07:31:25.978Z,165
2016-09-30T07:32:26.515Z,165
2016-09-30T07:33:27.149Z,165
2016-09-30T07:34:27.665Z,165
2016-09-30T07:35:28.033Z,176
2016-09-30T07:36:28.849Z,176
2016-09-30T07:37:29.064Z,176
2016-09-30T07:38:29.574Z,176
2016-09-30T07:39:30.093Z,176
2016-09-30T07:40:30.749Z,176
2016-09-30T07:41:31.110Z,176
2016-09-30T07:42:31.775Z,176
2016-09-30T07:43:32.433Z,176
2016-09-30T07:44:32.644Z,176
2016-09-30T07:45:33.156Z,198
2016-09-30T07:46:33.666Z,198
2016-09-30T07:47:34.174Z,198
2016-09-30T07:48:36.338Z,198
2016-09-30T07:49:35.199Z,198
2016-09-30T07:50:35.712Z,198
2016-09-30T07:51:36.376Z,198
2016-09-30T07:52:36.885Z,198
2016-09-30T07:53:37.268Z,198
2016-09-30T07:54:37.771Z,198
2016-09-30T07:55:38.285Z,220
2016-09-30T07:56:38.811Z,220
2016-09-30T07:57:39.293Z,220
2016-09-30T07:58:39.806Z,220
2016-09-30T07:59:40.341Z,220
2016-09-30T08:00:40.843Z,220
2016-09-30T08:01:41.345Z,220
2016-09-30T08:02:41.849Z,220
2016-09-30T08:03:42.352Z,220
2016-09-30T08:04:42.861Z,220
2016-09-30T08:05:43.377Z,211
2016-09-30T08:06:45.546Z,211
2016-09-30T08:07:44.404Z,211
2016-09-30T08:08:44.912Z,211
2016-09-30T08:09:45.574Z,211
2016-09-30T08:10:45.938Z,211
2016-09-30T08:11:46.448Z,211
2016-09-30T08:12:46.961Z,211
2016-09-30T08:13:47.495Z,211
2016-09-30T08:14:48.142Z,211
2016-09-30T08:15:48.509Z,212
2016-09-30T08:16:49.025Z,212
2016-09-30T08:17:49.535Z,212
2016-09-30T08:18:50.197Z,212
2016-09-30T08:19:50.559Z,212
2016-09-30T08:20:51.077Z,212
2016-09-30T08:21:51.583Z,212
2016-09-30T08:22:52.098Z,212
2016-09-30T08:23:52.612Z,212
2016-09-30T08:24:53.118Z,212
2016-09-30T08:25:53.782Z,205
2016-09-30T08:26:54.146Z,205
2016-09-30T08:27:54.653Z,205
2016-09-30T08:28:55.165Z,205
2016-09-30T08:29:55.828Z,205
2016-09-30T08:30:56.185Z,205
2016-09-30T08:31:56.706Z,205
2016-09-30T08:32:57.212Z,205
2016-09-30T08:33:57.872Z,205
2016-09-30T08:34:58.232Z,219
2016-09-30T08:35:58.754Z,219
2016-09-30T08:36:59.555Z,219
2016-09-30T08:37:59.772Z,219
2016-09-30T08:39:00.285Z,219
2016-09-30T08:40:00.791Z,219
2016-09-30T08:41:01.301Z,219
2016-09-30T08:42:01.838Z,219
2016-09-30T08:43:02.334Z,219
2016-09-30T08:44:02.844Z,219
2016-09-30T08:45:03.536Z,235
2016-09-30T08:46:04.018Z,235
2016-09-30T08:47:04.381Z,235
2016-09-30T08:48:04.896Z,235
2016-09-30T08:49:05.406Z,235
2016-09-30T08:50:05.927Z,235
2016-09-30T08:51:06.457Z,235
2016-09-30T08:52:06.963Z,235
2016-09-30T08:53:07.479Z,235
2016-09-30T08:54:07.987Z,235
2016-09-30T08:55:08.654Z,195
2016-09-30T08:56:09.014Z,195
2016-09-30T08:57:09.525Z,195
2016-09-30T08:58:10.042Z,195
2016-09-30T08:59:10.760Z,195
2016-09-30T09:00:11.078Z,195
2016-09-30T09:01:11.577Z,195
2016-09-30T09:02:12.091Z,195
2016-09-30T09:03:12.757Z,195
2016-09-30T09:04:13.117Z,195
2016-09-30T09:05:13.779Z,196
2016-09-30T09:06:14.153Z,196
2016-09-30T09:07:14.653Z,196
2016-09-30T09:08:15.166Z,196
2016-09-30T09:09:15.674Z,196
2016-09-30T09:10:16.190Z,196
2016-09-30T09:11:16.717Z,196
2016-09-30T09:12:17.361Z,196
2016-09-30T09:13:17.722Z,196
2016-09-30T09:14:18.233Z,196
2016-09-30T09:15:18.742Z,196
2016-09-30T09:16:19.400Z,196
2016-09-30T09:17:19.764Z,196
2016-09-30T09:18:20.272Z,196
2016-09-30T09:19:20.793Z,196
2016-09-30T09:20:21.300Z,196
2016-09-30T09:21:21.814Z,196
2016-09-30T09:22:22.333Z,196
2016-09-30T09:23:22.840Z,196
2016-09-30T09:24:24.703Z,196
2016-09-30T09:25:23.886Z,233
2016-09-30T09:26:24.377Z,233
2016-09-30T09:27:25.047Z,233
2016-09-30T09:28:25.416Z,233
2016-09-30T09:29:25.936Z,233
2016-09-30T09:30:26.441Z,233
2016-09-30T09:31:26.974Z,233
2016-09-30T09:32:27.462Z,233
2016-09-30T09:33:28.121Z,233
2016-09-30T09:34:28.484Z,233
2016-09-30T09:35:28.994Z,250
2016-09-30T09:36:29.504Z,250
2016-09-30T09:37:30.019Z,250
2016-09-30T09:38:30.530Z,250
2016-09-30T09:39:31.039Z,250
2016-09-30T09:40:31.557Z,250
2016-09-30T09:41:32.077Z,250
2016-09-30T09:42:32.573Z,250
2016-09-30T09:43:33.085Z,250
2016-09-30T09:44:33.597Z,250
2016-09-30T09:45:34.107Z,235
2016-09-30T09:46:34.624Z,235
2016-09-30T09:47:35.147Z,235
2016-09-30T09:48:35.657Z,235
2016-09-30T09:49:36.159Z,235
2016-09-30T09:50:36.672Z,235
2016-09-30T09:51:37.192Z,235
2016-09-30T09:52:37.712Z,235
2016-09-30T09:53:38.206Z,235
2016-09-30T09:54:38.863Z,235
2016-09-30T09:55:39.223Z,241
2016-09-30T09:56:39.737Z,241
2016-09-30T09:57:40.249Z,241
2016-09-30T09:58:40.759Z,241
2016-09-30T09:59:41.272Z,241
2016-09-30T10:00:41.778Z,241
2016-09-30T10:01:42.293Z,241
2016-09-30T10:02:42.815Z,241
2016-09-30T10:03:43.366Z,241
2016-09-30T10:04:43.846Z,241
2016-09-30T10:05:44.366Z,220
2016-09-30T10:06:44.872Z,220
2016-09-30T10:07:45.385Z,220
2016-09-30T10:08:45.894Z,220
2016-09-30T10:09:46.559Z,220
2016-09-30T10:10:46.921Z,220
2016-09-30T10:11:47.435Z,220
2016-09-30T10:12:48.391Z,220
2016-09-30T10:13:48.452Z,220
2016-09-30T10:14:48.970Z,220
2016-09-30T10:15:49.483Z,239
2016-09-30T10:16:49.992Z,239
2016-09-30T10:17:50.497Z,239
2016-09-30T10:18:51.162Z,239
2016-09-30T10:19:51.531Z,239
2016-09-30T10:20:52.058Z,239
2016-09-30T10:21:52.582Z,239
2016-09-30T10:22:53.068Z,239
2016-09-30T10:23:53.729Z,239
2016-09-30T10:24:54.094Z,239
2016-09-30T10:25:54.604Z,243
2016-09-30T10:26:55.118Z,243
2016-09-30T10:27:55.929Z,243
2016-09-30T10:28:56.139Z,243
2016-09-30T10:29:56.650Z,243
2016-09-30T10:30:57.186Z,243
2016-09-30T10:31:57.669Z,243
2016-09-30T10:32:58.183Z,243
2016-09-30T10:33:58.690Z,243
2016-09-30T10:34:59.351Z,245
2016-09-30T10:35:59.711Z,245
2016-09-30T10:37:00.222Z,245
2016-09-30T10:38:00.883Z,245
2016-09-30T10:39:01.245Z,245
2016-09-30T10:40:01.765Z,245
2016-09-30T10:41:02.278Z,245
2016-09-30T10:42:02.805Z,245
2016-09-30T10:43:03.461Z,245
2016-09-30T10:44:03.823Z,245
2016-09-30T10:45:04.338Z,219
2016-09-30T10:46:04.849Z,219
2016-09-30T10:47:05.359Z,219
2016-09-30T10:48:05.868Z,219
2016-09-30T10:49:06.533Z,219
2016-09-30T10:50:06.912Z,219
2016-09-30T10:51:07.404Z,219
2016-09-30T10:52:07.918Z,219
2016-09-30T10:53:08.431Z,219
2016-09-30T10:54:08.943Z,219
2016-09-30T10:55:09.452Z,233
2016-09-30T10:56:09.961Z,233
2016-09-30T10:57:10.477Z,233
2016-09-30T10:58:10.983Z,233
2016-09-30T10:59:11.498Z,233
2016-09-30T11:00:12.009Z,233
2016-09-30T11:01:12.528Z,233
2016-09-30T11:02:13.034Z,233
2016-09-30T11:03:13.545Z,233
2016-09-30T11:04:14.197Z,233
2016-09-30T11:05:14.553Z,252
2016-09-30T11:06:15.220Z,252
2016-09-30T11:07:15.583Z,252
2016-09-30T11:08:16.243Z,252
2016-09-30T11:09:16.608Z,252
2016-09-30T11:10:17.121Z,252
2016-09-30T11:11:17.637Z,252
2016-09-30T11:12:18.169Z,252
2016-09-30T11:13:18.675Z,252
2016-09-30T11:14:19.165Z,252
2016-09-30T11:15:19.705Z,228
2016-09-30T11:16:20.193Z,228
2016-09-30T11:17:20.859Z,228
2016-09-30T11:18:21.827Z,228
2016-09-30T11:19:21.744Z,228
2016-09-30T11:20:22.259Z,228
2016-09-30T11:21:22.777Z,228
2016-09-30T11:22:23.438Z,228
2016-09-30T11:23:23.800Z,228
2016-09-30T11:24:24.314Z,228
2016-09-30T11:25:24.845Z,232
2016-09-30T11:26:25.485Z,232
2016-09-30T11:27:25.854Z,232
2016-09-30T11:28:26.379Z,232
2016-09-30T11:29:26.867Z,232
2016-09-30T11:30:27.400Z,232
2016-09-30T11:31:28.043Z,232
2016-09-30T11:32:28.555Z,232
2016-09-30T11:33:28.914Z,232
2016-09-30T11:34:29.426Z,232
2016-09-30T11:35:30.091Z,233
2016-09-30T11:36:30.453Z,233
2016-09-30T11:37:30.978Z,233
2016-09-30T11:38:31.476Z,233
2016-09-30T11:39:31.994Z,233
2016-09-30T11:40:32.511Z,233
2016-09-30T11:41:33.165Z,233
2016-09-30T11:42:33.526Z,233
2016-09-30T11:43:34.045Z,233
2016-09-30T11:44:34.560Z,233
2016-09-30T11:45:35.066Z,250
2016-09-30T11:46:35.577Z,250
2016-09-30T11:47:36.098Z,250
2016-09-30T11:48:38.403Z,250
2016-09-30T11:49:37.258Z,250
2016-09-30T11:50:37.773Z,250
2016-09-30T11:51:38.133Z,250
2016-09-30T11:52:38.650Z,250
2016-09-30T11:53:39.163Z,250
2016-09-30T11:54:39.842Z,250
2016-09-30T11:55:40.200Z,226
2016-09-30T11:56:40.718Z,226
2016-09-30T11:57:41.229Z,226
2016-09-30T11:58:41.748Z,226
2016-09-30T11:59:42.562Z,226
2016-09-30T12:00:42.772Z,226
2016-09-30T12:01:43.284Z,226
2016-09-30T12:02:43.795Z,226
2016-09-30T12:04:44.820Z,226
2016-09-30T12:05:45.331Z,248
2016-09-30T12:06:47.190Z,248
2016-09-30T12:07:46.357Z,248
2016-09-30T12:08:47.010Z,248
2016-09-30T12:09:47.369Z,248
2016-09-30T12:10:47.884Z,248
2016-09-30T12:11:48.426Z,248
2016-09-30T12:12:48.905Z,248
2016-09-30T12:13:49.413Z,248
2016-09-30T12:14:49.925Z,248
2016-09-30T12:15:50.442Z,232
2016-09-30T12:16:50.945Z,232
2016-09-30T12:17:51.605Z,232
2016-09-30T12:18:51.972Z,232
2016-09-30T12:19:52.488Z,232
2016-09-30T12:20:52.992Z,232
2016-09-30T12:21:53.508Z,232
2016-09-30T12:22:54.021Z,232
2016-09-30T12:23:54.527Z,232
2016-09-30T12:24:55.036Z,232
2016-09-30T12:25:55.550Z,213
2016-09-30T12:26:56.209Z,213
2016-09-30T12:27:56.721Z,213
2016-09-30T12:28:57.235Z,213
2016-09-30T12:29:57.606Z,213
2016-09-30T12:30:58.112Z,213
2016-09-30T12:31:58.784Z,213
2016-09-30T12:32:59.144Z,213
2016-09-30T12:33:59.685Z,213
2016-09-30T12:35:00.177Z,225
2016-09-30T12:36:00.689Z,225
2016-09-30T12:37:01.218Z,225
2016-09-30T12:38:01.706Z,225
2016-09-30T12:39:02.237Z,225
2016-09-30T12:40:02.727Z,225
2016-09-30T12:41:03.245Z,225
2016-09-30T12:42:03.763Z,225
2016-09-30T12:43:04.415Z,225
2016-09-30T12:44:04.770Z,225
2016-09-30T12:45:05.281Z,246
2016-09-30T12:46:05.798Z,246
2016-09-30T12:47:06.475Z,246
2016-09-30T12:48:06.818Z,246
2016-09-30T12:49:07.346Z,246
2016-09-30T12:50:07.846Z,246
2016-09-30T12:51:08.358Z,246
2016-09-30T12:52:09.018Z,246
2016-09-30T12:53:09.377Z,246
2016-09-30T12:54:10.038Z,246
2016-09-30T12:55:10.400Z,233
2016-09-30T12:56:10.911Z,233
2016-09-30T12:57:11.425Z,233
2016-09-30T12:58:11.933Z,233
2016-09-30T12:59:12.451Z,233
2016-09-30T13:00:12.991Z,233
2016-09-30T13:01:13.465Z,233
2016-09-30T13:02:13.973Z,233
2016-09-30T13:03:14.638Z,233
2016-09-30T13:04:15.000Z,233
2016-09-30T13:05:15.519Z,229
2016-09-30T13:06:16.039Z,229
2016-09-30T13:07:16.529Z,229
2016-09-30T13:08:17.042Z,229
2016-09-30T13:09:17.559Z,229
2016-09-30T13:10:18.071Z,229
2016-09-30T13:11:18.587Z,229
2016-09-30T13:12:19.104Z,229
2016-09-30T13:13:19.615Z,229
2016-09-30T13:14:20.125Z,229
2016-09-30T13:15:20.655Z,209
2016-09-30T13:16:21.141Z,209
2016-09-30T13:17:21.670Z,209
2016-09-30T13:18:22.163Z,209
2016-09-30T13:19:22.673Z,209
2016-09-30T13:20:23.335Z,209
2016-09-30T13:21:23.846Z,209
2016-09-30T13:22:24.211Z,209
2016-09-30T13:23:24.719Z,209
2016-09-30T13:24:25.232Z,209
2016-09-30T13:25:25.743Z,237
2016-09-30T13:26:26.251Z,237
2016-09-30T13:27:26.760Z,237
2016-09-30T13:28:27.272Z,237
2016-09-30T13:29:27.785Z,237
2016-09-30T13:30:28.298Z,237
2016-09-30T13:31:28.959Z,237
2016-09-30T13:32:29.322Z,237
2016-09-30T13:33:29.842Z,237
2016-09-30T13:34:30.359Z,237
2016-09-30T13:35:31.004Z,212
2016-09-30T13:36:31.370Z,212
2016-09-30T13:37:31.878Z,212
2016-09-30T13:38:32.395Z,212
2016-09-30T13:39:32.900Z,212
2016-09-30T13:40:33.559Z,212
2016-09-30T13:41:34.073Z,212
2016-09-30T13:42:35.636Z,212
2016-09-30T13:43:34.940Z,212
2016-09-30T13:44:35.599Z,212
2016-09-30T13:45:35.971Z,234
2016-09-30T13:46:36.480Z,234
2016-09-30T13:47:36.997Z,234
2016-09-30T13:48:37.657Z,234
2016-09-30T13:49:38.029Z,234
2016-09-30T13:50:38.541Z,234
2016-09-30T13:51:39.050Z,234
2016-09-30T13:52:39.730Z,234
2016-09-30T13:53:40.079Z,234
2016-09-30T13:54:40.738Z,234
2016-09-30T13:55:41.111Z,270